Aérodrome :
LOGIN :

S'inscrire | Disclaimer

   EN    FR    IT 

 










Légende :    VFR   VFR Marginal   IFR   IFR Intensif   IFR Très Intensif
Visi : 
Plafond : 
>= 8 km
>= 3000ft
5 à 8 km
1000 à 3000 ft
1500m à 5 km
500 à 1000 ft
800 à 1500m
200 à 500 ft
< 800m
< 200 ft
Symboles :   Orages  Brouillard  Fortes neiges  Fortes précipitations  Vent > 20 kt
SIGMETs :   Divers  Orages  Givrage  Turbulence  Onde Orograph.  Cendres Volcan.






- Altitude de l'aérodrome : 249 ft


EGOS - RAF Shawbury

DERNIER METAR :
  • 021650Z AUTO 24012KT 9999 OVC046/// 19/08 Q1015

METARs EXPIRÉS :
  • 021620Z AUTO 26012KT 9999 OVC051/// 17/07 Q1015
  • 021550Z AUTO 26014KT 9999 FEW040/// BKN048/// 18/09 Q1015
  • 021520Z AUTO 23014KT 9999 OVC050/// 19/09 Q1015
  • 021450Z AUTO 24014KT 9999 OVC042/// 18/07 Q1015
  • 020250Z AUTO 18012KT 9999 FEW044/// BKN079/// 13/09 Q1014
  • 021420Z AUTO 24012KT 9999 SCT038/// BKN048/// 18/09 Q1015

Prévision TAF périmée.



MET'MAP, la Météo Aéronautique d'un coup d'oeil ! - Copyright ORBIFLY Décembre 2007 - Disclaimer

ORBIFLY MET'MAP TEAM :

Programmation & Développement : Alexandra Zaïnal
Sur une idée originale de : Baudouin d'Aumeries
Soutien technique & logistique : Manuel Goepfert
Assistance : Marc-Olivier Méhu




SOURCES & CREDITS :

   NOAA